EmailTwitter


Observations de surface / Québec / CYUL (71627)

Régions: Québec | Canada | États-Unis | Europe | France | UK | Ailleurs
Station
Affichage
Infos & localisation pour CYUL (71627) | Aide pour décoder les METARs

Observations prises le 2019-09-23 à 11H00 UTC à MONTREAL INTL A, QB (CYUL)

Etat du ciel: couvert.

Obstacle(s) à la visibilité: faibles averses de pluie.

Température: 24.0 Celsius

Point de rosée: 17.0 Celsius

Humidité relative: 65%

Indice Humidex: 29.

Vents: Ouest-sud-ouest à 22 km/h ou 12 noeuds.

Rafale du vent: 33 km/h ou 18 noeuds.

Pression au niveau moyen de la mer: 100.56 kilopascals.

Calage altimétrique: 100.54 kilopascals ou 29.69 pouces de mercure.

Visibilité horizontale: 15.00 milles terrestres ou 24.00 kilomètres.

Hauteur du plafond: 2591 mètres ( 8500 pieds ).

Observation METAR:

CYUL 231100Z 25012G18KT 15SM -SHRA FEW070 OVC085 24/17 A2969 RMK AC1AC8 AC TR

CVCTV CLD EMBD SLP056 DENSITY ALT 1400FT=